sensor_id;sensor_type;location;lat;lon;timestamp;pressure;altitude;pressure_sealevel;temperature;humidity
46129;BME280;31860;45.186;5.790;2023-03-13T00:00:34;99260.19;;;15.38;93.52
46129;BME280;31860;45.186;5.790;2023-03-13T00:02:59;99254.06;;;15.37;93.72
46129;BME280;31860;45.186;5.790;2023-03-13T00:05:25;99256.66;;;15.42;93.73
46129;BME280;31860;45.186;5.790;2023-03-13T00:07:50;99257.50;;;15.44;93.38
46129;BME280;31860;45.186;5.790;2023-03-13T00:10:16;99256.50;;;15.49;93.02
46129;BME280;31860;45.186;5.790;2023-03-13T00:12:41;99258.22;;;15.50;93.27
46129;BME280;31860;45.186;5.790;2023-03-13T00:15:07;99261.78;;;15.49;93.50
46129;BME280;31860;45.186;5.790;2023-03-13T00:17:33;99265.31;;;15.47;94.07
46129;BME280;31860;45.186;5.790;2023-03-13T00:19:58;99255.66;;;15.47;94.56
46129;BME280;31860;45.186;5.790;2023-03-13T00:22:23;99250.44;;;15.46;94.94
46129;BME280;31860;45.186;5.790;2023-03-13T00:24:49;99248.72;;;15.43;95.29
46129;BME280;31860;45.186;5.790;2023-03-13T00:27:14;99253.09;;;15.44;94.86
46129;BME280;31860;45.186;5.790;2023-03-13T00:29:40;99253.09;;;15.44;95.33
46129;BME280;31860;45.186;5.790;2023-03-13T00:32:05;99254.88;;;15.41;94.86
46129;BME280;31860;45.186;5.790;2023-03-13T00:34:30;99248.75;;;15.42;93.55
46129;BME280;31860;45.186;5.790;2023-03-13T00:36:56;99245.25;;;15.41;93.43
46129;BME280;31860;45.186;5.790;2023-03-13T00:39:21;99251.34;;;15.43;93.37
46129;BME280;31860;45.186;5.790;2023-03-13T00:41:47;99242.53;;;15.46;92.92
46129;BME280;31860;45.186;5.790;2023-03-13T00:44:13;99236.31;;;15.50;92.85
46129;BME280;31860;45.186;5.790;2023-03-13T00:46:38;99247.69;;;15.50;92.68
46129;BME280;31860;45.186;5.790;2023-03-13T00:49:04;99237.19;;;15.49;93.27
46129;BME280;31860;45.186;5.790;2023-03-13T00:51:30;99243.38;;;15.48;93.56
46129;BME280;31860;45.186;5.790;2023-03-13T00:53:57;99236.38;;;15.47;93.85
46129;BME280;31860;45.186;5.790;2023-03-13T00:56:25;99229.38;;;15.46;94.16
46129;BME280;31860;45.186;5.790;2023-03-13T00:58:50;99226.72;;;15.47;94.75
46129;BME280;31860;45.186;5.790;2023-03-13T01:01:25;99228.47;;;15.47;94.95
46129;BME280;31860;45.186;5.790;2023-03-13T01:04:04;99233.72;;;15.47;97.45
46129;BME280;31860;45.186;5.790;2023-03-13T01:06:31;99234.69;;;15.44;95.47
46129;BME280;31860;45.186;5.790;2023-03-13T01:08:58;99234.69;;;15.44;95.82
46129;BME280;31860;45.186;5.790;2023-03-13T01:11:32;99235.56;;;15.43;96.82
46129;BME280;31860;45.186;5.790;2023-03-13T01:14:01;99234.69;;;15.44;97.33
46129;BME280;31860;45.186;5.790;2023-03-13T01:16:28;99232.03;;;15.43;97.13
46129;BME280;31860;45.186;5.790;2023-03-13T01:18:56;99224.16;;;15.44;96.99
46129;BME280;31860;45.186;5.790;2023-03-13T01:21:24;99220.53;;;15.48;96.15
46129;BME280;31860;45.186;5.790;2023-03-13T01:23:50;99223.16;;;15.48;96.06
46129;BME280;31860;45.186;5.790;2023-03-13T01:26:16;99230.19;;;15.49;95.87
46129;BME280;31860;45.186;5.790;2023-03-13T01:28:42;99226.63;;;15.50;95.73
46129;BME280;31860;45.186;5.790;2023-03-13T01:33:35;99222.25;;;15.51;97.70
46129;BME280;31860;45.186;5.790;2023-03-13T01:36:01;99231.06;;;15.48;99.07
46129;BME280;31860;45.186;5.790;2023-03-13T01:38:27;99235.47;;;15.46;100.00
46129;BME280;31860;45.186;5.790;2023-03-13T01:40:52;99241.66;;;15.45;100.00
46129;BME280;31860;45.186;5.790;2023-03-13T01:43:23;99239.94;;;15.44;100.00
46129;BME280;31860;45.186;5.790;2023-03-13T01:45:56;99237.31;;;15.43;100.00
46129;BME280;31860;45.186;5.790;2023-03-13T01:51:40;99236.56;;;15.35;100.00
46129;BME280;31860;45.186;5.790;2023-03-13T01:56:50;99220.88;;;15.29;100.00
46129;BME280;31860;45.186;5.790;2023-03-13T01:59:21;99225.31;;;15.27;100.00
46129;BME280;31860;45.186;5.790;2023-03-13T02:01:48;99220.06;;;15.27;100.00
46129;BME280;31860;45.186;5.790;2023-03-13T02:04:16;99222.66;;;15.28;100.00
46129;BME280;31860;45.186;5.790;2023-03-13T02:06:46;99219.19;;;15.26;100.00
46129;BME280;31860;45.186;5.790;2023-03-13T02:09:19;99213.06;;;15.24;100.00
46129;BME280;31860;45.186;5.790;2023-03-13T02:11:49;99212.22;;;15.22;100.00
46129;BME280;31860;45.186;5.790;2023-03-13T02:14:19;99211.34;;;15.21;100.00
46129;BME280;31860;45.186;5.790;2023-03-13T02:16:46;99213.16;;;15.19;100.00
46129;BME280;31860;45.186;5.790;2023-03-13T02:21:55;99196.53;;;15.17;100.00
46129;BME280;31860;45.186;5.790;2023-03-13T02:24:28;99191.25;;;15.19;100.00
46129;BME280;31860;45.186;5.790;2023-03-13T02:26:56;99188.66;;;15.17;100.00
46129;BME280;31860;45.186;5.790;2023-03-13T02:29:23;99191.22;;;15.20;100.00
46129;BME280;31860;45.186;5.790;2023-03-13T02:31:49;99193.84;;;15.20;100.00
46129;BME280;31860;45.186;5.790;2023-03-13T02:34:19;99195.59;;;15.20;100.00
46129;BME280;31860;45.186;5.790;2023-03-13T02:36:47;99198.25;;;15.18;100.00
46129;BME280;31860;45.186;5.790;2023-03-13T02:39:16;99200.06;;;15.16;100.00
46129;BME280;31860;45.186;5.790;2023-03-13T02:41:43;99198.28;;;15.17;100.00
46129;BME280;31860;45.186;5.790;2023-03-13T02:44:10;99192.16;;;15.16;100.00
46129;BME280;31860;45.186;5.790;2023-03-13T02:46:46;99193.06;;;15.15;100.00
46129;BME280;31860;45.186;5.790;2023-03-13T02:49:28;99182.53;;;15.14;100.00
46129;BME280;31860;45.186;5.790;2023-03-13T02:51:57;99181.69;;;15.13;100.00
46129;BME280;31860;45.186;5.790;2023-03-13T02:54:29;99179.06;;;15.13;100.00
46129;BME280;31860;45.186;5.790;2023-03-13T02:56:57;99181.75;;;15.12;100.00
46129;BME280;31860;45.186;5.790;2023-03-13T02:59:25;99170.38;;;15.10;100.00
46129;BME280;31860;45.186;5.790;2023-03-13T03:01:50;99171.25;;;15.09;100.00
46129;BME280;31860;45.186;5.790;2023-03-13T03:04:20;99169.47;;;15.11;100.00
46129;BME280;31860;45.186;5.790;2023-03-13T03:06:46;99163.31;;;15.10;100.00
46129;BME280;31860;45.186;5.790;2023-03-13T03:09:12;99170.38;;;15.10;100.00
46129;BME280;31860;45.186;5.790;2023-03-13T03:11:37;99163.34;;;15.09;100.00
46129;BME280;31860;45.186;5.790;2023-03-13T03:14:03;99162.47;;;15.08;100.00
46129;BME280;31860;45.186;5.790;2023-03-13T03:16:29;99166.88;;;15.09;100.00
46129;BME280;31860;45.186;5.790;2023-03-13T03:18:54;99158.06;;;15.12;100.00
46129;BME280;31860;45.186;5.790;2023-03-13T03:21:20;99158.91;;;15.12;100.00
46129;BME280;31860;45.186;5.790;2023-03-13T03:23:46;99156.28;;;15.12;100.00
46129;BME280;31860;45.186;5.790;2023-03-13T03:26:11;99163.31;;;15.12;100.00
46129;BME280;31860;45.186;5.790;2023-03-13T03:28:37;99176.47;;;15.10;100.00
46129;BME280;31860;45.186;5.790;2023-03-13T03:31:07;99180.94;;;15.07;100.00
46129;BME280;31860;45.186;5.790;2023-03-13T03:33:33;99180.94;;;15.07;100.00
46129;BME280;31860;45.186;5.790;2023-03-13T03:35:59;99185.31;;;15.06;100.00
46129;BME280;31860;45.186;5.790;2023-03-13T03:38:25;99187.09;;;15.06;100.00
46129;BME280;31860;45.186;5.790;2023-03-13T03:40:50;99194.09;;;15.07;100.00
46129;BME280;31860;45.186;5.790;2023-03-13T03:43:16;99186.19;;;15.07;100.00
46129;BME280;31860;45.186;5.790;2023-03-13T03:45:41;99190.63;;;15.05;100.00
46129;BME280;31860;45.186;5.790;2023-03-13T03:48:06;99181.91;;;15.01;100.00
46129;BME280;31860;45.186;5.790;2023-03-13T03:50:32;99181.03;;;15.01;100.00
46129;BME280;31860;45.186;5.790;2023-03-13T03:52:57;99184.63;;;14.98;100.00
46129;BME280;31860;45.186;5.790;2023-03-13T03:55:22;99190.78;;;14.96;100.00
46129;BME280;31860;45.186;5.790;2023-03-13T03:57:48;99181.19;;;14.95;100.00
46129;BME280;31860;45.186;5.790;2023-03-13T04:00:13;99170.69;;;14.92;100.00
46129;BME280;31860;45.186;5.790;2023-03-13T04:02:41;99167.19;;;14.91;100.00
46129;BME280;31860;45.186;5.790;2023-03-13T04:05:07;99161.94;;;14.90;100.00
46129;BME280;31860;45.186;5.790;2023-03-13T04:07:32;99168.09;;;14.90;100.00
46129;BME280;31860;45.186;5.790;2023-03-13T04:09:58;99168.94;;;14.92;100.00
46129;BME280;31860;45.186;5.790;2023-03-13T04:12:23;99166.34;;;14.91;100.00
46129;BME280;31860;45.186;5.790;2023-03-13T04:14:49;99169.00;;;14.89;100.00
46129;BME280;31860;45.186;5.790;2023-03-13T04:17:14;99167.19;;;14.91;100.00
46129;BME280;31860;45.186;5.790;2023-03-13T04:19:39;99171.53;;;14.94;100.00
46129;BME280;31860;45.186;5.790;2023-03-13T04:22:05;99169.81;;;14.93;100.00
46129;BME280;31860;45.186;5.790;2023-03-13T04:24:30;99160.13;;;14.93;100.00
46129;BME280;31860;45.186;5.790;2023-03-13T04:26:56;99164.50;;;14.94;100.00
46129;BME280;31860;45.186;5.790;2023-03-13T04:29:21;99172.41;;;14.94;100.00
46129;BME280;31860;45.186;5.790;2023-03-13T04:31:47;99166.22;;;14.95;100.00
46129;BME280;31860;45.186;5.790;2023-03-13T04:34:12;99156.59;;;14.96;100.00
46129;BME280;31860;45.186;5.790;2023-03-13T04:36:37;99145.19;;;14.95;100.00
46129;BME280;31860;45.186;5.790;2023-03-13T04:39:03;99139.94;;;14.95;100.00
46129;BME280;31860;45.186;5.790;2023-03-13T04:41:28;99143.44;;;14.96;100.00
46129;BME280;31860;45.186;5.790;2023-03-13T04:43:54;99147.00;;;14.92;100.00
46129;BME280;31860;45.186;5.790;2023-03-13T04:46:19;99139.16;;;14.90;100.00
46129;BME280;31860;45.186;5.790;2023-03-13T04:48:44;99147.97;;;14.89;100.00
46129;BME280;31860;45.186;5.790;2023-03-13T04:51:11;99148.81;;;14.90;100.00
46129;BME280;31860;45.186;5.790;2023-03-13T04:53:37;99134.81;;;14.88;100.00
46129;BME280;31860;45.186;5.790;2023-03-13T04:56:02;99140.00;;;14.92;100.00
46129;BME280;31860;45.186;5.790;2023-03-13T04:58:28;99140.00;;;14.92;100.00
46129;BME280;31860;45.186;5.790;2023-03-13T05:00:53;99141.75;;;14.92;100.00
46129;BME280;31860;45.186;5.790;2023-03-13T05:03:19;99154.03;;;14.93;100.00
46129;BME280;31860;45.186;5.790;2023-03-13T05:05:44;99146.13;;;14.91;100.00
46129;BME280;31860;45.186;5.790;2023-03-13T05:08:10;99143.50;;;14.91;100.00
46129;BME280;31860;45.186;5.790;2023-03-13T05:10:36;99142.69;;;14.89;100.00
46129;BME280;31860;45.186;5.790;2023-03-13T05:13:01;99137.44;;;14.88;100.00
46129;BME280;31860;45.186;5.790;2023-03-13T05:15:27;99129.56;;;14.88;100.00
46129;BME280;31860;45.186;5.790;2023-03-13T05:17:52;99133.97;;;14.86;100.00
46129;BME280;31860;45.186;5.790;2023-03-13T05:20:17;99143.66;;;14.84;100.00
46129;BME280;31860;45.186;5.790;2023-03-13T05:22:43;99134.91;;;14.83;100.00
46129;BME280;31860;45.186;5.790;2023-03-13T05:25:08;99133.19;;;14.81;100.00
46129;BME280;31860;45.186;5.790;2023-03-13T05:27:34;99126.19;;;14.81;100.00
46129;BME280;31860;45.186;5.790;2023-03-13T05:29:59;99118.31;;;14.80;100.00
46129;BME280;31860;45.186;5.790;2023-03-13T05:32:25;99119.16;;;14.80;100.00
46129;BME280;31860;45.186;5.790;2023-03-13T05:34:50;99121.81;;;14.80;100.00
46129;BME280;31860;45.186;5.790;2023-03-13T05:37:15;99104.34;;;14.78;100.00
46129;BME280;31860;45.186;5.790;2023-03-13T05:39:41;99097.28;;;14.80;100.00
46129;BME280;31860;45.186;5.790;2023-03-13T05:42:06;99097.38;;;14.75;100.00
46129;BME280;31860;45.186;5.790;2023-03-13T05:44:32;99099.13;;;14.75;100.00
46129;BME280;31860;45.186;5.790;2023-03-13T05:46:57;99098.28;;;14.73;100.00
46129;BME280;31860;45.186;5.790;2023-03-13T05:49:22;99109.66;;;14.73;100.00
46129;BME280;31860;45.186;5.790;2023-03-13T05:51:48;99093.97;;;14.70;100.00
46129;BME280;31860;45.186;5.790;2023-03-13T05:54:13;99098.41;;;14.67;100.00
46129;BME280;31860;45.186;5.790;2023-03-13T05:56:38;99094.09;;;14.61;100.00
46129;BME280;31860;45.186;5.790;2023-03-13T05:59:04;99096.78;;;14.58;100.00
46129;BME280;31860;45.186;5.790;2023-03-13T06:01:29;99092.44;;;14.57;100.00
46129;BME280;31860;45.186;5.790;2023-03-13T06:03:54;99093.28;;;14.58;100.00
46129;BME280;31860;45.186;5.790;2023-03-13T06:06:20;99083.69;;;14.57;100.00
46129;BME280;31860;45.186;5.790;2023-03-13T06:08:46;99066.16;;;14.56;100.00
46129;BME280;31860;45.186;5.790;2023-03-13T06:11:11;99066.16;;;14.57;100.00
46129;BME280;31860;45.186;5.790;2023-03-13T06:13:37;99068.69;;;14.62;100.00
46129;BME280;31860;45.186;5.790;2023-03-13T06:16:03;99075.69;;;14.63;100.00
46129;BME280;31860;45.186;5.790;2023-03-13T06:18:28;99070.38;;;14.66;100.00
46129;BME280;31860;45.186;5.790;2023-03-13T06:20:58;99073.84;;;14.68;100.00
46129;BME280;31860;45.186;5.790;2023-03-13T06:23:24;99077.38;;;14.67;100.00
46129;BME280;31860;45.186;5.790;2023-03-13T06:25:50;99069.50;;;14.65;100.00
46129;BME280;31860;45.186;5.790;2023-03-13T06:28:16;99062.47;;;14.66;100.00
46129;BME280;31860;45.186;5.790;2023-03-13T06:30:42;99073.00;;;14.66;100.00
46129;BME280;31860;45.186;5.790;2023-03-13T06:33:07;99067.78;;;14.64;100.00
46129;BME280;31860;45.186;5.790;2023-03-13T06:35:33;99058.16;;;14.62;100.00
46129;BME280;31860;45.186;5.790;2023-03-13T06:37:59;99066.03;;;14.63;100.00
46129;BME280;31860;45.186;5.790;2023-03-13T06:40:24;99060.84;;;14.60;100.00
46129;BME280;31860;45.186;5.790;2023-03-13T06:42:49;99046.84;;;14.58;100.00
46129;BME280;31860;45.186;5.790;2023-03-13T06:45:15;99055.66;;;14.57;100.00
46129;BME280;31860;45.186;5.790;2023-03-13T06:47:41;99053.88;;;14.58;100.00
46129;BME280;31860;45.186;5.790;2023-03-13T06:50:06;99063.50;;;14.59;100.00
46129;BME280;31860;45.186;5.790;2023-03-13T06:52:32;99051.28;;;14.56;100.00
46129;BME280;31860;45.186;5.790;2023-03-13T06:54:57;99047.75;;;14.56;100.00
46129;BME280;31860;45.186;5.790;2023-03-13T06:57:23;99041.69;;;14.52;100.00
46129;BME280;31860;45.186;5.790;2023-03-13T06:59:48;99045.19;;;14.53;100.00
46129;BME280;31860;45.186;5.790;2023-03-13T07:02:14;99048.72;;;14.53;100.00
46129;BME280;31860;45.186;5.790;2023-03-13T07:04:40;99053.03;;;14.56;100.00
46129;BME280;31860;45.186;5.790;2023-03-13T07:07:05;99045.97;;;14.59;100.00
46129;BME280;31860;45.186;5.790;2023-03-13T07:09:31;99044.16;;;14.61;100.00
46129;BME280;31860;45.186;5.790;2023-03-13T07:11:56;99041.44;;;14.66;100.00
46129;BME280;31860;45.186;5.790;2023-03-13T07:14:23;99024.75;;;14.68;100.00
46129;BME280;31860;45.186;5.790;2023-03-13T07:16:49;99006.31;;;14.70;100.00
46129;BME280;31860;45.186;5.790;2023-03-13T07:19:15;99022.97;;;14.70;100.00
46129;BME280;31860;45.186;5.790;2023-03-13T07:21:41;99030.75;;;14.75;100.00
46129;BME280;31860;45.186;5.790;2023-03-13T07:24:07;99040.34;;;14.77;100.00
46129;BME280;31860;45.186;5.790;2023-03-13T07:26:32;99045.44;;;14.86;100.00
46129;BME280;31860;45.186;5.790;2023-03-13T07:28:58;99041.81;;;14.92;100.00
46129;BME280;31860;45.186;5.790;2023-03-13T07:31:23;99024.16;;;14.98;100.00
46129;BME280;31860;45.186;5.790;2023-03-13T07:33:49;99022.22;;;15.06;100.00
46129;BME280;31860;45.186;5.790;2023-03-13T07:36:18;99035.19;;;15.15;100.00
46129;BME280;31860;45.186;5.790;2023-03-13T07:38:49;99035.03;;;15.23;100.00
46129;BME280;31860;45.186;5.790;2023-03-13T07:41:15;99030.44;;;15.33;100.00
46129;BME280;31860;45.186;5.790;2023-03-13T07:43:41;99025.94;;;15.38;100.00
46129;BME280;31860;45.186;5.790;2023-03-13T07:46:09;99024.88;;;15.48;100.00
46129;BME280;31860;45.186;5.790;2023-03-13T07:48:36;99028.25;;;15.53;100.00
46129;BME280;31860;45.186;5.790;2023-03-13T07:51:04;99026.25;;;15.64;100.00
46129;BME280;31860;45.186;5.790;2023-03-13T07:53:30;99024.31;;;15.72;100.00
46129;BME280;31860;45.186;5.790;2023-03-13T07:55:58;99010.09;;;15.79;100.00
46129;BME280;31860;45.186;5.790;2023-03-13T07:58:28;99003.84;;;15.83;100.00
46129;BME280;31860;45.186;5.790;2023-03-13T08:00:54;98994.88;;;15.90;100.00
46129;BME280;31860;45.186;5.790;2023-03-13T08:03:20;98998.28;;;15.95;100.00
46129;BME280;31860;45.186;5.790;2023-03-13T08:05:46;99004.22;;;16.03;100.00
46129;BME280;31860;45.186;5.790;2023-03-13T08:08:11;99003.19;;;16.10;100.00
46129;BME280;31860;45.186;5.790;2023-03-13T08:10:37;99003.00;;;16.16;100.00
46129;BME280;31860;45.186;5.790;2023-03-13T08:13:03;99001.03;;;16.24;100.00
46129;BME280;31860;45.186;5.790;2023-03-13T08:15:28;98990.47;;;16.26;100.00
46129;BME280;31860;45.186;5.790;2023-03-13T08:17:55;98995.63;;;16.30;100.00
46129;BME280;31860;45.186;5.790;2023-03-13T08:20:20;98992.09;;;16.30;100.00
46129;BME280;31860;45.186;5.790;2023-03-13T08:22:46;98988.59;;;16.29;100.00
46129;BME280;31860;45.186;5.790;2023-03-13T08:25:13;98986.88;;;16.28;100.00
46129;BME280;31860;45.186;5.790;2023-03-13T08:27:39;98983.41;;;16.26;100.00
46129;BME280;31860;45.186;5.790;2023-03-13T08:30:05;98975.59;;;16.23;100.00
46129;BME280;31860;45.186;5.790;2023-03-13T08:32:36;98967.84;;;16.17;100.00
46129;BME280;31860;45.186;5.790;2023-03-13T08:35:03;98979.28;;;16.18;100.00
46129;BME280;31860;45.186;5.790;2023-03-13T08:37:28;98982.78;;;16.17;100.00
46129;BME280;31860;45.186;5.790;2023-03-13T08:39:54;98967.91;;;16.14;100.00
46129;BME280;31860;45.186;5.790;2023-03-13T08:42:24;98954.78;;;16.12;100.00
46129;BME280;31860;45.186;5.790;2023-03-13T08:44:49;98949.56;;;16.11;100.00
46129;BME280;31860;45.186;5.790;2023-03-13T08:47:15;98957.50;;;16.09;100.00
46129;BME280;31860;45.186;5.790;2023-03-13T08:49:43;98949.66;;;16.08;100.00
46129;BME280;31860;45.186;5.790;2023-03-13T08:52:11;98926.78;;;16.08;100.00
46129;BME280;31860;45.186;5.790;2023-03-13T08:54:37;98929.41;;;16.08;100.00
46129;BME280;31860;45.186;5.790;2023-03-13T08:57:02;98927.69;;;16.07;100.00
46129;BME280;31860;45.186;5.790;2023-03-13T08:59:28;98918.91;;;16.07;100.00
46129;BME280;31860;45.186;5.790;2023-03-13T09:01:54;98909.31;;;16.06;100.00
46129;BME280;31860;45.186;5.790;2023-03-13T09:04:19;98903.16;;;16.05;100.00
46129;BME280;31860;45.186;5.790;2023-03-13T09:06:44;98902.28;;;16.05;100.00
46129;BME280;31860;45.186;5.790;2023-03-13T09:09:11;98887.41;;;16.04;100.00
46129;BME280;31860;45.186;5.790;2023-03-13T09:11:37;98890.03;;;16.04;100.00
46129;BME280;31860;45.186;5.790;2023-03-13T09:14:04;98883.00;;;16.04;100.00
46129;BME280;31860;45.186;5.790;2023-03-13T09:16:31;98882.09;;;16.05;100.00
46129;BME280;31860;45.186;5.790;2023-03-13T09:18:57;98877.69;;;16.06;100.00
46129;BME280;31860;45.186;5.790;2023-03-13T09:21:26;98868.00;;;16.06;100.00
46129;BME280;31860;45.186;5.790;2023-03-13T09:23:53;98859.25;;;16.06;100.00
46129;BME280;31860;45.186;5.790;2023-03-13T09:26:19;98833.75;;;16.06;100.00
46129;BME280;31860;45.186;5.790;2023-03-13T09:28:44;98830.25;;;16.06;100.00
46129;BME280;31860;45.186;5.790;2023-03-13T09:31:12;98836.34;;;16.08;100.00
46129;BME280;31860;45.186;5.790;2023-03-13T09:33:40;98827.53;;;16.09;100.00
46129;BME280;31860;45.186;5.790;2023-03-13T09:36:07;98820.41;;;16.12;100.00
46129;BME280;31860;45.186;5.790;2023-03-13T09:38:33;98818.59;;;16.14;100.00
46129;BME280;31860;45.186;5.790;2023-03-13T09:44:05;98816.81;;;16.15;100.00
46129;BME280;31860;45.186;5.790;2023-03-13T09:47:18;98813.25;;;16.18;100.00
46129;BME280;31860;45.186;5.790;2023-03-13T09:49:38;98822.88;;;16.19;100.00
46129;BME280;31860;45.186;5.790;2023-03-13T09:52:24;98804.31;;;16.22;100.00
46129;BME280;31860;45.186;5.790;2023-03-13T09:55:13;98784.88;;;16.26;100.00
46129;BME280;31860;45.186;5.790;2023-03-13T09:57:55;98783.97;;;16.27;100.00
46129;BME280;31860;45.186;5.790;2023-03-13T10:00:25;98774.16;;;16.32;100.00
46129;BME280;31860;45.186;5.790;2023-03-13T10:05:23;98773.84;;;16.42;100.00
46129;BME280;31860;45.186;5.790;2023-03-13T10:07:49;98776.25;;;16.51;100.00
46129;BME280;31860;45.186;5.790;2023-03-13T10:10:21;98757.50;;;16.60;100.00
46129;BME280;31860;45.186;5.790;2023-03-13T10:12:52;98748.47;;;16.67;100.00
46129;BME280;31860;45.186;5.790;2023-03-13T10:15:42;98745.53;;;16.76;99.25
46129;BME280;31860;45.186;5.790;2023-03-13T10:18:17;98729.56;;;16.81;96.61
46129;BME280;31860;45.186;5.790;2023-03-13T10:20:47;98719.63;;;16.89;95.54
46129;BME280;31860;45.186;5.790;2023-03-13T10:23:34;98728.13;;;16.98;93.90
46129;BME280;31860;45.186;5.790;2023-03-13T10:26:03;98719.75;;;17.11;93.58
46129;BME280;31860;45.186;5.790;2023-03-13T10:28:29;98713.16;;;17.24;92.73
46129;BME280;31860;45.186;5.790;2023-03-13T10:31:17;98714.56;;;17.34;88.63
46129;BME280;31860;45.186;5.790;2023-03-13T10:33:44;98702.66;;;17.47;88.49
46129;BME280;31860;45.186;5.790;2023-03-13T10:36:12;98697.66;;;17.64;87.68
46129;BME280;31860;45.186;5.790;2023-03-13T10:43:57;98679.16;;;18.10;84.56
46129;BME280;31860;45.186;5.790;2023-03-13T10:46:25;98677.66;;;18.26;82.69
46129;BME280;31860;45.186;5.790;2023-03-13T10:48:53;98669.13;;;18.41;81.93
46129;BME280;31860;45.186;5.790;2023-03-13T10:51:21;98672.06;;;18.57;80.89
46129;BME280;31860;45.186;5.790;2023-03-13T10:53:47;98667.03;;;18.71;79.80
46129;BME280;31860;45.186;5.790;2023-03-13T10:56:15;98661.84;;;18.89;78.30
46129;BME280;31860;45.186;5.790;2023-03-13T10:58:46;98642.75;;;19.03;77.14
46129;BME280;31860;45.186;5.790;2023-03-13T11:01:41;98634.06;;;19.20;74.95
46129;BME280;31860;45.186;5.790;2023-03-13T11:04:30;98620.97;;;19.37;72.51
46129;BME280;31860;45.186;5.790;2023-03-13T11:07:14;98615.00;;;19.52;73.23
46129;BME280;31860;45.186;5.790;2023-03-13T11:09:40;98616.16;;;19.65;73.92
46129;BME280;31860;45.186;5.790;2023-03-13T11:12:16;98599.63;;;19.78;72.28
46129;BME280;31860;45.186;5.790;2023-03-13T11:14:43;98594.59;;;19.91;72.60
46129;BME280;31860;45.186;5.790;2023-03-13T11:17:29;98603.72;;;20.04;72.68
46129;BME280;31860;45.186;5.790;2023-03-13T11:22:33;98581.03;;;20.34;71.93
46129;BME280;31860;45.186;5.790;2023-03-13T11:28:27;98554.38;;;20.54;69.68
46129;BME280;31860;45.186;5.790;2023-03-13T11:31:10;98553.97;;;20.62;67.26
46129;BME280;31860;45.186;5.790;2023-03-13T11:36:42;98540.94;;;20.74;66.38
46129;BME280;31860;45.186;5.790;2023-03-13T11:41:55;98530.47;;;20.89;65.12
46129;BME280;31860;45.186;5.790;2023-03-13T11:50:35;98500.50;;;21.04;57.84
46129;BME280;31860;45.186;5.790;2023-03-13T11:58:34;98459.53;;;21.23;57.69
46129;BME280;31860;45.186;5.790;2023-03-13T12:01:05;98455.88;;;21.26;52.40
46129;BME280;31860;45.186;5.790;2023-03-13T12:06:37;98439.09;;;21.41;54.22
46129;BME280;31860;45.186;5.790;2023-03-13T12:09:09;98423.50;;;21.50;54.71
46129;BME280;31860;45.186;5.790;2023-03-13T12:11:59;98408.66;;;21.62;53.14
46129;BME280;31860;45.186;5.790;2023-03-13T12:14:50;98402.78;;;21.71;51.60
46129;BME280;31860;45.186;5.790;2023-03-13T12:25:26;98349.50;;;22.18;52.28
46129;BME280;31860;45.186;5.790;2023-03-13T12:30:42;98331.47;;;22.37;51.67
46129;BME280;31860;45.186;5.790;2023-03-13T12:33:18;98322.16;;;22.44;51.64
46129;BME280;31860;45.186;5.790;2023-03-13T12:35:48;98305.69;;;22.51;52.95
46129;BME280;31860;45.186;5.790;2023-03-13T12:43:23;98261.19;;;22.82;50.95
46129;BME280;31860;45.186;5.790;2023-03-13T12:51:13;98240.34;;;23.15;50.76
46129;BME280;31860;45.186;5.790;2023-03-13T12:59:15;98192.06;;;23.46;46.02
46129;BME280;31860;45.186;5.790;2023-03-13T13:01:46;98186.94;;;23.56;46.08
46129;BME280;31860;45.186;5.790;2023-03-13T13:04:14;98177.47;;;23.64;45.57
46129;BME280;31860;45.186;5.790;2023-03-13T13:09:30;98151.44;;;23.80;43.53
46129;BME280;31860;45.186;5.790;2023-03-13T13:11:59;98166.28;;;23.84;43.74
46129;BME280;31860;45.186;5.790;2023-03-13T13:17:00;98121.97;;;23.94;41.11
46129;BME280;31860;45.186;5.790;2023-03-13T13:25:33;98109.16;;;23.99;40.33
46129;BME280;31860;45.186;5.790;2023-03-13T13:30:50;98082.47;;;23.99;40.45
46129;BME280;31860;45.186;5.790;2023-03-13T13:38:45;98082.72;;;23.96;40.85
46129;BME280;31860;45.186;5.790;2023-03-13T13:43:42;98040.34;;;23.92;40.31
46129;BME280;31860;45.186;5.790;2023-03-13T13:46:29;98038.84;;;23.88;38.37
46129;BME280;31860;45.186;5.790;2023-03-13T13:51:36;98032.03;;;23.84;39.36
46129;BME280;31860;45.186;5.790;2023-03-13T13:57:11;98048.47;;;23.78;38.24
46129;BME280;31860;45.186;5.790;2023-03-13T13:59:41;98027.25;;;23.76;39.44
46129;BME280;31860;45.186;5.790;2023-03-13T14:04:37;98017.75;;;23.72;39.06
46129;BME280;31860;45.186;5.790;2023-03-13T14:07:05;98002.84;;;23.70;39.55
46129;BME280;31860;45.186;5.790;2023-03-13T14:09:42;97999.53;;;23.66;38.98
46129;BME280;31860;45.186;5.790;2023-03-13T14:12:32;98008.72;;;23.62;37.92
46129;BME280;31860;45.186;5.790;2023-03-13T14:15:18;98000.19;;;23.57;37.72
46129;BME280;31860;45.186;5.790;2023-03-13T14:17:52;97972.78;;;23.55;38.90
46129;BME280;31860;45.186;5.790;2023-03-13T14:20:37;97985.47;;;23.51;37.62
46129;BME280;31860;45.186;5.790;2023-03-13T14:23:06;97990.06;;;23.49;39.46
46129;BME280;31860;45.186;5.790;2023-03-13T14:25:49;98019.72;;;23.45;38.30
46129;BME280;31860;45.186;5.790;2023-03-13T14:28:25;98001.19;;;23.43;38.00
46129;BME280;31860;45.186;5.790;2023-03-13T14:30:53;98011.19;;;23.40;39.14
46129;BME280;31860;45.186;5.790;2023-03-13T14:33:19;97979.31;;;23.38;39.19
46129;BME280;31860;45.186;5.790;2023-03-13T14:35:46;97979.53;;;23.35;39.01
46129;BME280;31860;45.186;5.790;2023-03-13T14:38:23;98003.72;;;23.32;38.23
46129;BME280;31860;45.186;5.790;2023-03-13T14:40:50;98018.03;;;23.31;39.05
46129;BME280;31860;45.186;5.790;2023-03-13T14:43:31;97988.06;;;23.28;38.39